createdAt,value
2019-02-23T00:02:22.190Z,17.90
2019-02-23T00:04:52.362Z,18.93
2019-02-23T00:07:22.552Z,18.65
2019-02-23T00:09:52.762Z,19.87
2019-02-23T00:12:22.837Z,19.67
2019-02-23T00:14:53.107Z,19.80
2019-02-23T00:17:23.320Z,22.13
2019-02-23T00:19:53.545Z,23.03
2019-02-23T00:22:23.751Z,22.48
2019-02-23T00:24:53.885Z,25.43
2019-02-23T00:27:24.023Z,24.53
2019-02-23T00:29:54.157Z,27.03
2019-02-23T00:32:24.295Z,26.97
2019-02-23T00:34:54.456Z,24.57
2019-02-23T00:37:24.600Z,27.60
2019-02-23T00:39:54.717Z,27.17
2019-02-23T00:42:24.968Z,27.87
2019-02-23T00:44:55.133Z,28.70
2019-02-23T00:47:25.378Z,27.40
2019-02-23T00:49:55.440Z,28.00
2019-02-23T00:52:25.601Z,28.52
2019-02-23T00:54:55.676Z,26.53
2019-02-23T00:57:25.976Z,28.23
2019-02-23T00:59:56.215Z,30.37
2019-02-23T01:02:26.446Z,30.40
2019-02-23T01:04:58.235Z,30.47
2019-02-23T01:07:28.460Z,30.73
2019-02-23T01:09:58.757Z,27.50
2019-02-23T01:12:29.103Z,29.40
2019-02-23T01:14:59.371Z,29.63
2019-02-23T01:17:29.679Z,30.40
2019-02-23T01:20:00.096Z,31.02
2019-02-23T01:22:30.452Z,31.57
2019-02-23T01:25:00.844Z,29.77
2019-02-23T01:27:30.976Z,32.87
2019-02-23T01:30:01.131Z,30.30
2019-02-23T01:32:31.444Z,32.87
2019-02-23T01:35:01.669Z,30.23
2019-02-23T01:37:31.908Z,30.50
2019-02-23T01:40:02.068Z,31.12
2019-02-23T01:42:32.241Z,33.60
2019-02-23T01:45:02.431Z,32.97
2019-02-23T01:47:32.716Z,30.68
2019-02-23T01:50:02.976Z,33.63
2019-02-23T01:52:33.181Z,31.97
2019-02-23T01:55:03.344Z,32.60
2019-02-23T01:57:33.476Z,33.00
2019-02-23T02:00:03.743Z,32.97
2019-02-23T02:02:33.994Z,32.70
2019-02-23T02:05:04.125Z,32.23
2019-02-23T02:07:34.356Z,32.07
2019-02-23T02:10:06.098Z,34.20
2019-02-23T02:12:36.242Z,31.33
2019-02-23T02:15:09.713Z,33.00
2019-02-23T02:17:39.981Z,35.07
2019-02-23T02:20:11.694Z,35.00
2019-02-23T02:22:41.994Z,32.73
2019-02-23T02:25:12.851Z,31.37
2019-02-23T02:27:43.156Z,32.27
2019-02-23T02:30:13.466Z,34.77
2019-02-23T02:32:43.691Z,34.60
2019-02-23T02:35:13.932Z,35.23
2019-02-23T02:37:44.084Z,36.43
2019-02-23T02:40:14.307Z,35.33
2019-02-23T02:42:44.398Z,33.23
2019-02-23T02:45:14.738Z,34.03
2019-02-23T02:47:44.894Z,33.17
2019-02-23T02:50:23.905Z,35.20
2019-02-23T02:52:47.280Z,34.10
2019-02-23T02:55:17.504Z,34.40
2019-02-23T02:57:47.651Z,34.53
2019-02-23T03:00:18.072Z,35.57
2019-02-23T03:02:50.659Z,38.17
2019-02-23T03:05:20.885Z,36.17
2019-02-23T03:07:51.071Z,38.57
2019-02-23T03:10:21.279Z,36.37
2019-02-23T03:12:51.441Z,37.97
2019-02-23T03:15:21.599Z,35.83
2019-02-23T03:17:51.743Z,33.90
2019-02-23T03:20:21.954Z,34.90
2019-02-23T03:23:00.160Z,39.10
2019-02-23T03:25:30.258Z,37.37
2019-02-23T03:28:00.302Z,34.27
2019-02-23T03:30:30.520Z,34.90
2019-02-23T03:33:00.690Z,34.67
2019-02-23T03:35:31.104Z,34.23
2019-02-23T03:38:01.368Z,35.63
2019-02-23T03:40:31.633Z,34.90
2019-02-23T03:43:01.942Z,35.27
2019-02-23T03:45:32.151Z,33.67
2019-02-23T03:48:02.486Z,39.50
2019-02-23T03:50:32.661Z,35.80
2019-02-23T03:53:02.922Z,34.60
2019-02-23T03:55:33.142Z,34.80
2019-02-23T03:58:03.596Z,35.50
2019-02-23T04:00:33.851Z,32.77
2019-02-23T04:03:04.124Z,35.67
2019-02-23T04:05:34.241Z,35.00
2019-02-23T04:08:04.638Z,35.63
2019-02-23T04:10:34.737Z,35.00
2019-02-23T04:13:05.009Z,36.40
2019-02-23T04:15:35.277Z,34.40
2019-02-23T04:18:06.889Z,32.43
2019-02-23T04:20:37.077Z,34.83
2019-02-23T04:23:07.381Z,35.80
2019-02-23T04:25:37.641Z,34.43
2019-02-23T04:28:07.871Z,35.43
2019-02-23T04:30:38.046Z,35.60
2019-02-23T04:33:08.358Z,34.97
2019-02-23T04:35:38.485Z,35.00
2019-02-23T04:38:09.828Z,32.55
2019-02-23T04:40:39.961Z,35.87
2019-02-23T04:43:10.119Z,36.53
2019-02-23T04:45:40.307Z,33.40
2019-02-23T04:48:10.414Z,33.00
2019-02-23T04:50:40.527Z,34.43
2019-02-23T04:53:10.737Z,34.90
2019-02-23T04:55:40.942Z,34.23
2019-02-23T04:58:11.235Z,33.53
2019-02-23T05:00:44.739Z,35.60
2019-02-23T05:03:13.416Z,34.43
2019-02-23T05:05:43.583Z,35.03
2019-02-23T05:08:13.767Z,34.83
2019-02-23T05:10:43.867Z,32.47
2019-02-23T05:13:14.016Z,34.10
2019-02-23T05:15:44.207Z,33.77
2019-02-23T05:18:14.347Z,33.77
2019-02-23T05:20:44.564Z,32.73
2019-02-23T05:23:14.903Z,31.43
2019-02-23T05:25:45.192Z,33.03
2019-02-23T05:28:15.315Z,34.58
2019-02-23T05:30:45.650Z,32.47
2019-02-23T05:33:15.889Z,32.78
2019-02-23T05:35:46.038Z,32.40
2019-02-23T05:38:16.316Z,35.20
2019-02-23T05:40:46.459Z,32.27
2019-02-23T05:43:16.600Z,33.20
2019-02-23T05:45:46.809Z,36.77
2019-02-23T05:48:20.330Z,32.97
2019-02-23T05:50:50.486Z,33.90
2019-02-23T05:53:20.559Z,30.12
2019-02-23T05:55:50.632Z,31.68
2019-02-23T05:58:20.865Z,33.47
2019-02-23T06:00:51.016Z,34.10
2019-02-23T06:03:21.472Z,34.17
2019-02-23T06:05:51.679Z,34.13
2019-02-23T06:08:21.968Z,31.60
2019-02-23T06:10:52.059Z,33.13
2019-02-23T06:13:22.611Z,33.07
2019-02-23T06:15:53.181Z,33.20
2019-02-23T06:18:23.631Z,33.35
2019-02-23T06:20:54.211Z,32.37
2019-02-23T06:23:24.812Z,33.90
2019-02-23T06:25:55.306Z,32.93
2019-02-23T06:28:26.141Z,32.90
2019-02-23T06:30:56.725Z,30.80
2019-02-23T06:33:27.196Z,33.50
2019-02-23T06:35:57.663Z,34.20
2019-02-23T06:38:28.197Z,33.00
2019-02-23T06:40:58.720Z,32.10
2019-02-23T06:43:29.154Z,32.53
2019-02-23T06:45:59.658Z,34.13
2019-02-23T06:48:30.300Z,31.80
2019-02-23T06:51:00.799Z,34.30
2019-02-23T06:53:31.157Z,34.48
2019-02-23T06:56:01.669Z,31.90
2019-02-23T06:58:32.289Z,33.57
2019-02-23T07:01:02.740Z,32.73
2019-02-23T07:03:33.368Z,33.50
2019-02-23T07:06:04.034Z,30.97
2019-02-23T07:08:34.511Z,29.87
2019-02-23T07:11:04.952Z,29.33
2019-02-23T07:13:35.905Z,30.90
2019-02-23T07:16:08.781Z,29.20
2019-02-23T07:18:39.396Z,29.20
2019-02-23T07:21:09.932Z,26.73
2019-02-23T07:23:40.467Z,31.73
2019-02-23T07:26:10.972Z,28.35
2019-02-23T07:28:41.514Z,28.70
2019-02-23T07:31:11.654Z,28.44
2019-02-23T07:33:42.009Z,28.57
2019-02-23T07:36:14.822Z,26.90
2019-02-23T07:38:44.017Z,29.17
2019-02-23T07:41:14.285Z,28.90
2019-02-23T07:43:44.568Z,28.80
2019-02-23T07:46:14.914Z,27.40
2019-02-23T07:48:49.750Z,24.80
2019-02-23T07:51:20.264Z,24.47
2019-02-23T07:53:53.797Z,27.00
2019-02-23T07:56:24.133Z,26.77
2019-02-23T07:58:54.374Z,27.13
2019-02-23T08:01:24.685Z,27.03
2019-02-23T08:03:58.920Z,24.90
2019-02-23T08:06:30.225Z,26.80
2019-02-23T08:09:00.552Z,26.10
2019-02-23T08:11:30.835Z,26.03
2019-02-23T08:14:01.070Z,24.10
2019-02-23T08:16:31.306Z,27.33
2019-02-23T08:19:01.545Z,26.13
2019-02-23T08:21:31.848Z,26.15
2019-02-23T08:24:02.078Z,26.07
2019-02-23T08:26:32.260Z,26.00
2019-02-23T08:29:02.420Z,25.20
2019-02-23T08:31:32.696Z,25.50
2019-02-23T08:34:02.917Z,26.53
2019-02-23T08:36:33.186Z,23.63
2019-02-23T08:39:03.674Z,25.60
2019-02-23T08:41:34.050Z,25.10
2019-02-23T08:44:04.403Z,25.40
2019-02-23T08:46:34.711Z,26.93
2019-02-23T08:49:04.966Z,26.75
2019-02-23T08:51:35.231Z,26.37
2019-02-23T08:54:05.511Z,26.27
2019-02-23T08:56:35.858Z,27.00
2019-02-23T08:59:06.789Z,27.17
2019-02-23T09:01:37.048Z,24.87
2019-02-23T09:04:07.398Z,26.77
2019-02-23T09:06:37.681Z,26.77
2019-02-23T09:09:09.930Z,26.10
2019-02-23T09:11:40.093Z,26.20
2019-02-23T09:14:15.849Z,25.73
2019-02-23T09:16:45.944Z,24.50
2019-02-23T09:19:23.613Z,25.77
2019-02-23T09:22:00.949Z,24.67
2019-02-23T09:24:37.617Z,23.83
2019-02-23T09:27:07.900Z,24.67
2019-02-23T09:29:44.781Z,25.53
2019-02-23T09:32:17.277Z,24.27
2019-02-23T09:34:47.530Z,24.17
2019-02-23T09:37:20.669Z,25.50
2019-02-23T09:39:51.156Z,23.23
2019-02-23T09:42:21.400Z,24.63
2019-02-23T09:44:51.746Z,23.57
2019-02-23T09:47:24.622Z,24.17
2019-02-23T09:49:54.839Z,23.67
2019-02-23T09:52:25.256Z,22.13
2019-02-23T09:54:56.650Z,22.63
2019-02-23T09:57:26.835Z,22.40
2019-02-23T09:59:56.959Z,21.87
2019-02-23T10:02:30.215Z,21.90
2019-02-23T10:05:00.492Z,21.10
2019-02-23T10:07:30.753Z,21.03
2019-02-23T10:10:00.996Z,21.33
2019-02-23T10:12:37.717Z,20.20
2019-02-23T10:15:08.456Z,19.97
2019-02-23T10:17:38.724Z,20.27
2019-02-23T10:20:09.965Z,21.37
2019-02-23T10:22:40.201Z,19.77
2019-02-23T10:25:10.508Z,19.83
2019-02-23T10:27:41.897Z,19.50
2019-02-23T10:30:13.833Z,18.30
2019-02-23T10:32:44.092Z,18.07
2019-02-23T10:35:15.664Z,19.17
2019-02-23T10:37:45.998Z,19.27
2019-02-23T10:40:19.119Z,18.42
2019-02-23T10:42:49.271Z,18.33
2019-02-23T10:45:19.473Z,18.70
2019-02-23T10:47:50.325Z,18.10
2019-02-23T10:50:22.934Z,18.82
2019-02-23T10:52:53.223Z,18.03
2019-02-23T10:55:26.382Z,18.83
2019-02-23T10:57:56.681Z,17.10
2019-02-23T11:00:27.079Z,17.93
2019-02-23T11:02:57.384Z,18.03
2019-02-23T11:05:27.836Z,18.20
2019-02-23T11:07:58.282Z,17.33
2019-02-23T11:10:28.625Z,17.83
2019-02-23T11:12:58.809Z,18.30
2019-02-23T11:15:29.230Z,16.73
2019-02-23T11:17:59.639Z,17.20
2019-02-23T11:20:30.952Z,19.07
2019-02-23T11:23:01.464Z,17.17
2019-02-23T11:25:31.749Z,16.80
2019-02-23T11:28:02.084Z,17.73
2019-02-23T11:30:32.420Z,17.50
2019-02-23T11:33:02.871Z,17.70
2019-02-23T11:35:35.160Z,17.70
2019-02-23T11:38:06.741Z,17.17
2019-02-23T11:40:36.977Z,17.57
2019-02-23T11:43:07.340Z,16.80
2019-02-23T11:45:37.754Z,17.27
2019-02-23T11:48:08.034Z,20.77
2019-02-23T11:50:41.240Z,16.93
2019-02-23T11:53:11.456Z,16.40
2019-02-23T11:55:41.770Z,16.17
2019-02-23T11:58:12.184Z,16.80
2019-02-23T12:00:42.511Z,15.83
2019-02-23T12:03:13.001Z,15.93
2019-02-23T12:05:43.430Z,14.80
2019-02-23T12:08:13.825Z,15.87
2019-02-23T12:10:44.109Z,16.10
2019-02-23T12:13:14.374Z,15.88
2019-02-23T12:15:44.704Z,16.57
2019-02-23T12:18:15.156Z,16.55
2019-02-23T12:20:50.800Z,15.70
2019-02-23T12:23:20.896Z,16.07
2019-02-23T12:25:51.321Z,16.20
2019-02-23T12:28:23.115Z,15.93
2019-02-23T12:30:53.437Z,15.00
2019-02-23T12:33:26.370Z,16.57
2019-02-23T12:35:58.568Z,16.10
2019-02-23T12:38:29.090Z,16.03
2019-02-23T12:40:59.357Z,15.70
2019-02-23T12:43:29.779Z,15.20
2019-02-23T12:46:00.103Z,14.83
2019-02-23T12:48:30.606Z,15.50
2019-02-23T12:51:00.827Z,15.33
2019-02-23T12:53:31.121Z,15.20
2019-02-23T12:56:01.319Z,14.73
2019-02-23T12:58:31.608Z,15.67
2019-02-23T13:01:01.956Z,15.00
2019-02-23T13:03:32.395Z,15.47
2019-02-23T13:06:02.783Z,15.47
2019-02-23T13:09:20.164Z,16.50
2019-02-23T13:12:03.130Z,14.80
2019-02-23T13:15:01.925Z,14.60
2019-02-23T13:18:47.773Z,15.50
2019-02-23T13:21:50.263Z,14.93
2019-02-23T13:24:53.028Z,15.55
2019-02-23T13:27:55.420Z,16.27
2019-02-23T13:31:10.936Z,17.03
2019-02-23T13:34:36.479Z,16.30
2019-02-23T13:37:32.181Z,15.72
2019-02-23T13:41:10.240Z,15.73
2019-02-23T13:44:19.421Z,15.43
2019-02-23T13:47:55.035Z,15.30
2019-02-23T13:51:30.409Z,15.25
2019-02-23T13:54:38.581Z,15.20
2019-02-23T13:57:26.154Z,15.83
2019-02-23T14:00:48.290Z,16.20
2019-02-23T14:04:29.775Z,16.00
2019-02-23T14:08:00.613Z,15.07
2019-02-23T14:11:46.381Z,14.63
2019-02-23T14:15:21.860Z,14.40
2019-02-23T14:19:04.355Z,15.90
2019-02-23T14:22:23.840Z,14.13
2019-02-23T14:25:57.258Z,14.80
2019-02-23T14:29:20.567Z,15.43
2019-02-23T14:32:55.815Z,14.70
2019-02-23T14:36:38.622Z,15.90
2019-02-23T14:39:42.698Z,14.67
2019-02-23T14:43:12.330Z,14.50
2019-02-23T14:46:36.268Z,14.77
2019-02-23T14:50:09.392Z,13.63
2019-02-23T14:53:34.986Z,14.07
2019-02-23T14:56:49.062Z,14.33
2019-02-23T15:00:01.571Z,15.40
2019-02-23T15:03:58.163Z,13.77
2019-02-23T15:07:25.330Z,14.30
2019-02-23T15:10:24.846Z,14.37
2019-02-23T15:13:37.762Z,14.17
2019-02-23T15:17:10.905Z,15.08
2019-02-23T15:20:29.465Z,14.37
2019-02-23T15:23:59.692Z,13.37
2019-02-23T15:27:03.480Z,13.70
2019-02-23T15:30:26.144Z,17.55
2019-02-23T15:33:48.843Z,14.60
2019-02-23T15:37:24.535Z,15.70
2019-02-23T15:40:34.668Z,14.00
2019-02-23T15:43:38.355Z,14.90
2019-02-23T15:47:00.946Z,13.95
2019-02-23T15:49:35.996Z,14.43
2019-02-23T15:52:08.772Z,15.13
2019-02-23T15:54:39.457Z,14.93
2019-02-23T15:57:13.322Z,14.90
2019-02-23T15:59:46.098Z,15.87
2019-02-23T16:02:16.473Z,14.78
2019-02-23T16:04:47.242Z,15.17
2019-02-23T16:07:17.746Z,14.73
2019-02-23T16:09:48.392Z,15.47
2019-02-23T16:12:21.187Z,14.83
2019-02-23T16:14:51.527Z,15.10
2019-02-23T16:17:22.051Z,15.23
2019-02-23T16:19:52.450Z,16.00
2019-02-23T16:22:22.700Z,15.97
2019-02-23T16:24:52.843Z,15.13
2019-02-23T16:27:26.117Z,15.57
2019-02-23T16:29:58.946Z,16.17
2019-02-23T16:32:31.592Z,16.13
2019-02-23T16:35:01.805Z,15.60
2019-02-23T16:37:34.775Z,16.13
2019-02-23T16:40:05.160Z,16.97
2019-02-23T16:42:35.745Z,15.67
2019-02-23T16:45:07.657Z,16.57
2019-02-23T16:47:38.191Z,16.57
2019-02-23T16:50:09.769Z,16.93
2019-02-23T16:52:40.287Z,17.50
2019-02-23T16:55:11.943Z,17.27
2019-02-23T16:57:42.597Z,16.97
2019-02-23T17:00:13.172Z,17.83
2019-02-23T17:02:43.611Z,16.77
2019-02-23T17:05:14.061Z,17.43
2019-02-23T17:07:44.791Z,17.73
2019-02-23T17:10:15.307Z,17.17
2019-02-23T17:12:46.321Z,17.97
2019-02-23T17:15:17.026Z,17.80
2019-02-23T17:17:47.793Z,19.33
2019-02-23T17:20:18.813Z,18.10
2019-02-23T17:22:49.430Z,18.17
2019-02-23T17:25:19.980Z,18.23
2019-02-23T17:27:52.489Z,18.80
2019-02-23T17:30:23.247Z,18.03
2019-02-23T17:32:53.888Z,19.57
2019-02-23T17:35:24.937Z,18.10
2019-02-23T17:37:55.478Z,18.80
2019-02-23T17:40:25.980Z,19.13
2019-02-23T17:42:56.528Z,19.20
2019-02-23T17:45:26.683Z,19.47
2019-02-23T17:47:56.754Z,19.80
2019-02-23T17:50:26.849Z,18.00
2019-02-23T17:52:57.097Z,18.73
2019-02-23T17:55:27.303Z,17.42
2019-02-23T17:57:57.471Z,18.83
2019-02-23T18:00:27.550Z,18.43
2019-02-23T18:02:57.761Z,17.70
2019-02-23T18:05:28.490Z,18.87
2019-02-23T18:07:58.627Z,19.33
2019-02-23T18:10:28.794Z,19.27
2019-02-23T18:12:58.916Z,19.70
2019-02-23T18:15:29.179Z,18.77
2019-02-23T18:17:59.401Z,19.03
2019-02-23T18:20:29.671Z,20.80
2019-02-23T18:22:59.758Z,21.37
2019-02-23T18:25:29.940Z,20.43
2019-02-23T18:28:00.335Z,21.23
2019-02-23T18:30:30.615Z,20.77
2019-02-23T18:33:00.763Z,20.97
2019-02-23T18:35:31.064Z,20.33
2019-02-23T18:38:01.210Z,21.23
2019-02-23T18:40:31.447Z,21.17
2019-02-23T18:43:01.594Z,21.80
2019-02-23T18:45:31.963Z,19.73
2019-02-23T18:48:02.493Z,22.03
2019-02-23T18:50:33.126Z,21.83
2019-02-23T18:53:03.644Z,21.50
2019-02-23T18:55:40.808Z,20.63
2019-02-23T18:58:07.089Z,22.90
2019-02-23T19:00:37.784Z,22.27
2019-02-23T19:03:08.311Z,21.37
2019-02-23T19:05:38.723Z,21.83
2019-02-23T19:08:09.280Z,21.82
2019-02-23T19:10:39.837Z,22.10
2019-02-23T19:13:10.540Z,20.97
2019-02-23T19:15:41.454Z,21.63
2019-02-23T19:18:12.244Z,21.00
2019-02-23T19:20:42.725Z,21.90
2019-02-23T19:23:14.871Z,21.03
2019-02-23T19:25:45.444Z,22.17
2019-02-23T19:28:15.926Z,22.85
2019-02-23T19:30:47.079Z,22.97
2019-02-23T19:33:18.533Z,21.07
2019-02-23T19:35:50.815Z,23.20
2019-02-23T19:38:21.662Z,24.10
2019-02-23T19:40:52.466Z,23.50
2019-02-23T19:43:22.906Z,23.40
2019-02-23T19:45:55.370Z,22.67
2019-02-23T19:48:26.229Z,22.15
2019-02-23T19:51:02.398Z,23.80
2019-02-23T19:53:33.023Z,23.50
2019-02-23T19:56:03.451Z,24.30
2019-02-23T19:58:33.972Z,23.03
2019-02-23T20:01:04.586Z,23.03
2019-02-23T20:06:31.675Z,22.07
2019-02-23T20:09:02.192Z,22.40
2019-02-23T20:11:32.746Z,22.87
2019-02-23T20:14:03.341Z,23.90
2019-02-23T20:16:33.928Z,23.73
2019-02-23T20:19:05.006Z,23.00
2019-02-23T20:21:35.769Z,24.30
2019-02-23T20:24:07.053Z,24.57
2019-02-23T20:29:09.289Z,24.20
2019-02-23T20:31:40.016Z,22.70
2019-02-23T20:34:10.773Z,23.63
2019-02-23T20:36:41.509Z,23.30
2019-02-23T20:39:12.145Z,23.12
2019-02-23T20:41:42.655Z,24.03
2019-02-23T20:44:13.404Z,24.63
2019-02-23T20:46:43.992Z,23.70
2019-02-23T20:49:14.577Z,24.20
2019-02-23T20:51:45.178Z,24.67
2019-02-23T20:54:15.720Z,26.00
2019-02-23T20:56:46.210Z,25.53
2019-02-23T20:59:16.773Z,24.90
2019-02-23T21:01:47.301Z,25.27
2019-02-23T21:04:17.923Z,25.13
2019-02-23T21:06:48.363Z,27.23
2019-02-23T21:09:18.981Z,26.87
2019-02-23T21:11:49.471Z,24.23
2019-02-23T21:14:20.021Z,23.80
2019-02-23T21:16:50.480Z,25.67
2019-02-23T21:19:21.023Z,24.50
2019-02-23T21:21:51.520Z,23.63
2019-02-23T21:24:21.928Z,24.95
2019-02-23T21:26:52.380Z,23.60
2019-02-23T21:29:22.909Z,25.60
2019-02-23T21:31:53.387Z,24.07
2019-02-23T21:34:23.890Z,25.03
2019-02-23T21:36:54.420Z,24.23
2019-02-23T21:39:24.941Z,24.33
2019-02-23T21:41:55.659Z,25.57
2019-02-23T21:44:26.173Z,25.70
2019-02-23T21:46:56.801Z,25.13
2019-02-23T21:49:27.738Z,24.67
2019-02-23T21:51:58.372Z,25.30
2019-02-23T21:54:29.005Z,24.63
2019-02-23T21:56:59.586Z,24.70
2019-02-23T21:59:30.085Z,26.27
2019-02-23T22:02:00.574Z,26.00
2019-02-23T22:04:31.259Z,26.00
2019-02-23T22:07:01.936Z,26.13
2019-02-23T22:09:32.461Z,27.25
2019-02-23T22:12:02.936Z,25.37
2019-02-23T22:14:33.619Z,26.77
2019-02-23T22:17:03.965Z,25.57
2019-02-23T22:19:34.261Z,26.80
2019-02-23T22:22:04.533Z,25.77
2019-02-23T22:24:34.783Z,25.57
2019-02-23T22:27:05.070Z,27.73
2019-02-23T22:29:35.353Z,26.20
2019-02-23T22:32:05.739Z,27.27
2019-02-23T22:34:36.068Z,25.03
2019-02-23T22:37:07.168Z,25.85
2019-02-23T22:39:37.524Z,25.23
2019-02-23T22:42:07.844Z,26.27
2019-02-23T22:44:38.151Z,26.63
2019-02-23T22:47:08.470Z,25.93
2019-02-23T22:49:38.742Z,24.77
2019-02-23T22:52:09.041Z,25.07
2019-02-23T22:54:39.297Z,25.10
2019-02-23T22:57:09.507Z,26.03
2019-02-23T22:59:39.676Z,25.17
2019-02-23T23:02:09.955Z,24.27
2019-02-23T23:04:40.159Z,26.80
2019-02-23T23:07:10.505Z,25.35
2019-02-23T23:09:40.813Z,24.90
2019-02-23T23:12:11.209Z,24.67
2019-02-23T23:14:41.501Z,25.30
2019-02-23T23:17:11.868Z,24.77
2019-02-23T23:19:42.161Z,26.00
2019-02-23T23:22:12.380Z,23.92
2019-02-23T23:24:42.608Z,25.90
2019-02-23T23:27:12.866Z,23.50
2019-02-23T23:29:43.206Z,24.23
2019-02-23T23:32:13.452Z,25.77
2019-02-23T23:34:43.630Z,23.40
2019-02-23T23:37:13.903Z,24.18
2019-02-23T23:39:44.206Z,25.13
2019-02-23T23:42:14.426Z,24.23
2019-02-23T23:44:44.817Z,23.53
2019-02-23T23:47:15.079Z,24.85
2019-02-23T23:49:45.391Z,24.20
2019-02-23T23:52:15.713Z,23.97
2019-02-23T23:54:45.967Z,23.27
2019-02-23T23:57:16.112Z,24.03
2019-02-23T23:59:46.424Z,23.40
